Time;durP1;ratioP1;P1;durP2;ratioP2;P2;SDS_P1;SDS_P2;PMS_P1;PMS_P2;Temp;Humidity;BMP_temperature;BMP_pressure;BME280_temperature;BME280_humidity;BME280_pressure;Samples;Min_cycle;Max_cycle;Signal;HPM_P1;HPM_P2
2023/01/29 00:01:55;;;;;;;48.50;25.73;;;-0.20;16.60;;;;;;4986602;28;20801;-86
2023/01/29 00:04:20;;;;;;;45.10;24.50;;;-0.20;61.10;;;;;;4980872;28;20699;-86
2023/01/29 00:06:46;;;;;;;45.77;24.90;;;-0.20;93.50;;;;;;4963510;28;20196;-86
2023/01/29 00:09:12;;;;;;;50.80;26.33;;;-0.20;99.90;;;;;;4974711;28;20258;-85
2023/01/29 00:11:38;;;;;;;44.72;24.25;;;-0.30;99.90;;;;;;4979182;28;20215;-86
2023/01/29 00:14:04;;;;;;;48.67;27.40;;;-0.30;99.90;;;;;;4987936;28;20344;-86
2023/01/29 00:16:29;;;;;;;47.15;23.95;;;-0.30;99.90;;;;;;4956987;28;20267;-86
2023/01/29 00:19:47;;;;;;;49.87;25.90;;;-0.30;99.90;;;;;;4985895;28;20186;-86
2023/01/29 00:22:13;;;;;;;44.92;21.75;;;-0.30;99.90;;;;;;4982634;28;20203;-86
2023/01/29 00:24:38;;;;;;;42.40;22.73;;;-0.30;99.90;;;;;;4969423;28;20215;-86
2023/01/29 00:27:05;;;;;;;45.70;23.83;;;-0.30;99.90;;;;;;4971465;28;20243;-86
2023/01/29 00:29:30;;;;;;;43.30;22.70;;;-0.30;99.90;;;;;;4981706;28;20176;-86
2023/01/29 00:31:56;;;;;;;46.07;23.17;;;-0.30;99.90;;;;;;4956239;28;20222;-86
2023/01/29 00:34:22;;;;;;;47.40;24.37;;;-0.30;99.90;;;;;;4960038;28;20287;-87
2023/01/29 00:36:47;;;;;;;44.25;24.80;;;-0.30;99.90;;;;;;4974899;28;20188;-86
2023/01/29 00:39:13;;;;;;;48.10;23.97;;;-0.30;99.90;;;;;;4975727;28;20235;-86
2023/01/29 00:49:51;;;;;;;52.85;27.42;;;-0.40;99.90;;;;;;4977837;28;20197;-86
2023/01/29 00:52:23;;;;;;;48.77;28.00;;;-0.40;99.90;;;;;;4975092;28;20584;-86
2023/01/29 00:54:48;;;;;;;41.70;22.25;;;-0.40;1.00;;;;;;4968069;28;20187;-87
2023/01/29 00:57:14;;;;;;;42.87;23.10;;;-0.40;1.00;;;;;;4980466;28;20212;-86
2023/01/29 00:59:39;;;;;;;48.50;23.63;;;-0.40;1.00;;;;;;4972810;28;20459;-85
2023/01/29 01:04:49;;;;;;;44.08;22.25;;;-0.40;1.00;;;;;;4963231;28;20561;-86
2023/01/29 01:07:15;;;;;;;43.63;22.83;;;-0.40;1.00;;;;;;4980631;28;20192;-86
2023/01/29 01:12:24;;;;;;;41.80;23.95;;;-0.50;1.00;;;;;;4977479;28;20243;-86
2023/01/29 01:14:52;;;;;;;43.10;23.87;;;-0.50;1.00;;;;;;4971412;28;20204;-86
2023/01/29 01:17:17;;;;;;;39.92;22.40;;;-0.50;1.00;;;;;;4955995;28;20230;-86
2023/01/29 01:19:43;;;;;;;47.33;25.13;;;-0.50;1.00;;;;;;4976227;28;20799;-85
2023/01/29 01:22:08;;;;;;;41.00;22.97;;;-0.50;1.00;;;;;;4953526;28;20188;-86
2023/01/29 01:24:34;;;;;;;44.73;25.50;;;-0.50;1.00;;;;;;4954331;28;20291;-86
2023/01/29 01:27:05;;;;;;;45.73;23.33;;;-0.50;1.00;;;;;;4972535;28;20219;-86
2023/01/29 01:29:33;;;;;;;43.70;23.65;;;-0.50;1.00;;;;;;4960323;28;20184;-86
2023/01/29 01:32:22;;;;;;;;;;;;;;;;;;;;;
2023/01/29 01:34:48;;;;;;;54.85;25.38;;;-0.50;1.00;;;;;;4969596;28;20199;-86
2023/01/29 01:37:13;;;;;;;44.50;24.80;;;-0.50;1.00;;;;;;4970778;28;20620;-85
2023/01/29 01:39:39;;;;;;;45.00;24.17;;;-0.50;1.00;;;;;;4954948;28;20694;-86
2023/01/29 01:42:11;;;;;;;55.20;27.10;;;-0.50;1.00;;;;;;4976340;28;20595;-86
2023/01/29 01:45:03;;;;;;;47.20;24.25;;;-0.50;1.00;;;;;;4981462;28;20254;-87
2023/01/29 01:47:44;;;;;;;46.22;24.27;;;-0.60;1.00;;;;;;4974880;28;20243;-86
2023/01/29 01:50:35;;;;;;;54.30;26.42;;;-0.60;1.00;;;;;;4978945;28;20198;-86
2023/01/29 01:53:07;;;;;;;51.40;26.25;;;-0.60;1.00;;;;;;4969555;28;20258;-86
2023/01/29 01:55:36;;;;;;;49.22;25.48;;;-0.70;1.00;;;;;;4976177;28;20185;-86
2023/01/29 01:58:08;;;;;;;49.67;26.20;;;-0.70;1.00;;;;;;4978762;28;20180;-86
2023/01/29 02:00:55;;;;;;;55.15;26.10;;;-0.70;23.60;;;;;;4962771;28;20279;-86
2023/01/29 02:11:55;;;;;;;52.00;27.70;;;-0.80;99.90;;;;;;4974945;28;20255;-86
2023/01/29 02:14:21;;;;;;;53.63;27.07;;;-0.80;99.90;;;;;;4953476;28;20436;-86
2023/01/29 02:16:47;;;;;;;55.43;26.80;;;-0.80;99.90;;;;;;4960572;28;20856;-86
2023/01/29 02:19:34;;;;;;;56.40;27.10;;;-0.80;99.90;;;;;;4975604;28;20529;-86
2023/01/29 02:22:24;;;;;;;58.22;25.80;;;-0.80;99.90;;;;;;4968115;28;20196;-87
2023/01/29 02:25:44;;;;;;;53.80;25.92;;;-0.90;99.90;;;;;;4965494;28;20196;-86
2023/01/29 02:28:12;;;;;;;60.40;27.92;;;-0.90;99.90;;;;;;4894719;29;20590;-86
2023/01/29 02:31:03;;;;;;;51.47;26.45;;;-0.90;99.90;;;;;;4970614;28;20220;-86
2023/01/29 02:33:29;;;;;;;54.22;26.52;;;-0.90;1.00;;;;;;4976842;28;20211;-86
2023/01/29 02:36:13;;;;;;;53.70;26.50;;;-0.90;1.00;;;;;;4982444;28;20184;-86
2023/01/29 02:39:22;;;;;;;60.38;28.23;;;-0.90;1.00;;;;;;4961318;28;20207;-86
2023/01/29 02:42:29;;;;;;;54.70;28.58;;;-1.00;1.00;;;;;;4975167;28;20192;-87
2023/01/29 02:45:04;;;;;;;59.80;26.67;;;-1.00;1.00;;;;;;4970922;28;20184;-86
2023/01/29 02:47:38;;;;;;;62.25;26.55;;;-1.00;1.00;;;;;;4980171;28;20216;-87
2023/01/29 02:50:21;;;;;;;53.55;28.42;;;-1.00;36.70;;;;;;4972405;28;20629;-86
2023/01/29 02:53:02;;;;;;;52.22;26.30;;;-1.00;99.90;;;;;;4980331;28;20215;-86
2023/01/29 02:55:54;;;;;;;46.88;24.88;;;-1.00;99.90;;;;;;4977331;28;20223;-87
2023/01/29 02:58:28;;;;;;;53.67;25.10;;;-1.00;1.00;;;;;;4977855;28;20176;-85
2023/01/29 03:01:02;;;;;;;57.70;26.80;;;-0.90;1.00;;;;;;4972531;28;20191;-86
2023/01/29 03:03:40;;;;;;;52.50;25.55;;;-0.80;1.00;;;;;;4957258;28;20746;-86
2023/01/29 03:06:10;;;;;;;54.65;26.48;;;-0.70;1.00;;;;;;4976054;28;20631;-86
2023/01/29 03:08:44;;;;;;;50.13;25.75;;;-0.70;1.00;;;;;;4982286;28;20199;-87
2023/01/29 03:11:15;;;;;;;52.47;27.50;;;-0.60;99.90;;;;;;4978164;28;20200;-86
2023/01/29 03:13:50;;;;;;;58.55;26.95;;;-0.60;99.90;;;;;;4986893;28;20612;-86
2023/01/29 03:16:32;;;;;;;49.33;24.95;;;-0.60;69.00;;;;;;4953869;28;20680;-87
2023/01/29 03:19:08;;;;;;;56.45;26.88;;;-0.70;1.00;;;;;;4957772;28;20192;-86
2023/01/29 03:21:58;;;;;;;57.30;25.55;;;-0.70;1.00;;;;;;4970960;28;20184;-86
2023/01/29 03:37:29;;;;;;;53.17;26.10;;;-0.90;99.90;;;;;;4911799;29;20899;-86
2023/01/29 03:40:56;;;;;;;;;;;;;;;;;;;;;
2023/01/29 03:44:10;;;;;;;58.15;25.85;;;-0.90;1.00;;;;;;4934282;28;20213;-86
2023/01/29 03:47:12;;;;;;;48.13;25.55;;;-0.90;1.00;;;;;;4975347;28;20543;-86
2023/01/29 03:50:30;;;;;;;55.75;26.42;;;-0.90;1.00;;;;;;4976090;28;20206;-86
2023/01/29 04:00:42;;;;;;;50.67;26.13;;;-0.80;1.00;;;;;;4931835;29;20216;-85
2023/01/29 04:20:18;;;;;;;;;;;;;;;;;;;;;
2023/01/29 04:23:09;;;;;;;55.38;26.08;;;-0.80;1.00;;;;;;4943140;28;20287;-86
2023/01/29 04:29:40;;;;;;;53.40;28.35;;;-0.80;1.00;;;;;;4913353;29;20192;-86
2023/01/29 04:36:53;;;;;;;55.20;27.15;;;-0.80;1.00;;;;;;4905033;29;20229;-86
2023/01/29 04:40:15;;;;;;;;;;;;;;;;;;;;;
2023/01/29 04:43:41;;;;;;;61.13;25.67;;;-0.90;1.00;;;;;;4985303;28;20181;-86
2023/01/29 04:50:15;;;;;;;53.78;26.80;;;-0.90;99.90;;;;;;5000030;28;20214;-86
2023/01/29 04:56:45;;;;;;;59.72;26.25;;;-1.00;99.90;;;;;;4966787;28;20651;-86
2023/01/29 04:59:16;;;;;;;55.20;26.80;;;-1.00;99.90;;;;;;4935460;28;20244;-86
2023/01/29 05:01:43;;;;;;;65.22;29.67;;;-1.00;99.90;;;;;;4987578;28;20205;-86
2023/01/29 05:04:56;;;;;;;58.15;26.88;;;-1.00;99.90;;;;;;4979311;28;20214;-87
2023/01/29 05:07:24;;;;;;;68.07;27.42;;;-1.00;1.00;;;;;;4888713;29;20230;-86
2023/01/29 05:09:50;;;;;;;72.18;28.45;;;-1.00;1.00;;;;;;4895731;29;20194;-86
2023/01/29 05:12:51;;;;;;;55.75;28.00;;;-0.90;1.00;;;;;;4984564;28;20227;-86
2023/01/29 05:16:12;;;;;;;60.10;27.80;;;-0.90;1.00;;;;;;4986848;28;20186;-86
2023/01/29 05:18:37;;;;;;;61.10;28.45;;;-0.90;1.00;;;;;;4969727;28;20192;-87
2023/01/29 05:21:06;;;;;;;66.30;29.23;;;-0.90;1.00;;;;;;4989979;28;20194;-86
2023/01/29 05:23:31;;;;;;;61.10;27.38;;;-0.90;12.60;;;;;;4993099;28;20290;-86
2023/01/29 05:25:57;;;;;;;54.77;26.20;;;-0.90;96.60;;;;;;4984766;28;20926;-87
2023/01/29 05:28:23;;;;;;;60.37;28.83;;;-0.90;99.90;;;;;;4986491;28;20218;-87
2023/01/29 05:30:51;;;;;;;61.43;29.60;;;-0.90;99.90;;;;;;4974102;28;20250;-86
2023/01/29 05:33:20;;;;;;;58.95;27.02;;;-0.90;99.90;;;;;;4993117;28;20207;-86
2023/01/29 05:35:46;;;;;;;66.95;29.75;;;-0.80;99.90;;;;;;4998318;28;20179;-86
2023/01/29 05:38:12;;;;;;;65.23;27.43;;;-0.80;99.90;;;;;;4967743;28;20187;-86
2023/01/29 05:40:38;;;;;;;66.20;28.63;;;-0.80;1.00;;;;;;4980749;28;20461;-86
2023/01/29 05:43:04;;;;;;;62.00;28.70;;;-0.80;1.00;;;;;;4977306;28;20584;-85
2023/01/29 05:45:31;;;;;;;59.83;28.50;;;-0.70;1.00;;;;;;4993212;28;20438;-87
2023/01/29 05:47:58;;;;;;;60.30;28.92;;;-0.70;1.00;;;;;;4978330;28;20195;-86
2023/01/29 05:50:25;;;;;;;65.68;27.70;;;-0.70;1.00;;;;;;4974195;28;20184;-87
2023/01/29 05:52:59;;;;;;;62.22;28.02;;;-0.60;1.00;;;;;;4982110;28;20207;-86
2023/01/29 05:55:25;;;;;;;64.13;27.95;;;-0.60;1.00;;;;;;4988744;28;20262;-86
2023/01/29 05:57:50;;;;;;;62.63;28.60;;;-0.50;1.00;;;;;;4973883;28;21974;-87
2023/01/29 06:00:16;;;;;;;65.73;28.33;;;-0.50;1.00;;;;;;4991328;28;20437;-87
2023/01/29 06:02:42;;;;;;;58.20;27.50;;;-0.50;1.00;;;;;;4996965;28;20931;-86
2023/01/29 06:05:08;;;;;;;64.80;27.50;;;-0.50;99.90;;;;;;5000200;28;20278;-86
2023/01/29 06:07:33;;;;;;;60.23;28.03;;;-0.50;99.90;;;;;;4998935;28;20219;-86
2023/01/29 06:09:59;;;;;;;58.97;27.07;;;-0.50;99.90;;;;;;4992577;28;20208;-86
2023/01/29 06:12:26;;;;;;;59.63;27.10;;;-0.50;99.90;;;;;;4986531;28;20214;-86
2023/01/29 06:14:51;;;;;;;66.80;29.83;;;-0.50;99.90;;;;;;4990706;28;20191;-86
2023/01/29 06:17:17;;;;;;;61.03;29.63;;;-0.50;99.90;;;;;;5002963;28;20226;-86
2023/01/29 06:19:43;;;;;;;66.03;28.60;;;-0.50;99.90;;;;;;4994842;28;20526;-86
2023/01/29 06:22:08;;;;;;;59.83;27.17;;;-0.50;1.00;;;;;;4993845;28;20187;-86
2023/01/29 06:24:34;;;;;;;62.87;28.33;;;-0.50;1.00;;;;;;4999307;28;20238;-86
2023/01/29 06:26:59;;;;;;;62.97;28.40;;;-0.50;1.00;;;;;;5004795;28;20240;-86
2023/01/29 06:29:25;;;;;;;54.80;27.20;;;-0.50;1.00;;;;;;4991467;28;20203;-86
2023/01/29 06:31:50;;;;;;;63.87;30.17;;;-0.50;1.00;;;;;;4972614;28;20246;-85
2023/01/29 06:34:16;;;;;;;63.37;30.63;;;-0.50;1.00;;;;;;4990219;28;20211;-85
2023/01/29 06:36:42;;;;;;;64.80;29.50;;;-0.50;1.00;;;;;;4992259;28;20559;-86
2023/01/29 06:39:07;;;;;;;68.43;29.97;;;-0.50;1.00;;;;;;4981944;28;20194;-86
2023/01/29 06:41:34;;;;;;;57.97;29.07;;;-0.50;1.00;;;;;;4998352;28;20666;-86
2023/01/29 06:43:59;;;;;;;61.10;27.92;;;-0.40;1.00;;;;;;4982406;28;20262;-86
2023/01/29 06:46:25;;;;;;;58.23;27.90;;;-0.40;1.00;;;;;;4991063;28;20215;-86
2023/01/29 06:48:50;;;;;;;63.93;27.20;;;-0.40;1.00;;;;;;4978435;28;20198;-86
2023/01/29 06:51:16;;;;;;;61.73;28.57;;;-0.30;99.90;;;;;;4977491;28;20776;-86
2023/01/29 06:53:41;;;;;;;60.60;28.50;;;-0.30;99.90;;;;;;4996581;28;20278;-87
2023/01/29 06:56:08;;;;;;;60.10;29.20;;;-0.30;99.90;;;;;;4982709;28;20183;-86
2023/01/29 06:58:37;;;;;;;59.92;28.40;;;-0.30;99.90;;;;;;4994486;28;20188;-86
2023/01/29 07:01:07;;;;;;;58.70;27.55;;;-0.20;99.90;;;;;;4975322;28;20671;-86
2023/01/29 07:03:33;;;;;;;64.38;29.55;;;-0.20;99.90;;;;;;4990189;28;20218;-87
2023/01/29 07:05:58;;;;;;;60.73;29.03;;;-0.20;1.00;;;;;;4996575;28;20187;-86
2023/01/29 07:08:24;;;;;;;64.50;30.50;;;-0.20;1.00;;;;;;4993926;28;20446;-86
2023/01/29 07:10:50;;;;;;;63.67;29.83;;;-0.20;1.00;;;;;;4984811;28;20282;-85
2023/01/29 07:13:16;;;;;;;58.13;28.85;;;-0.20;1.00;;;;;;4991914;28;20210;-85
2023/01/29 07:15:41;;;;;;;61.13;27.07;;;-0.20;1.00;;;;;;4979437;28;20576;-85
2023/01/29 07:18:11;;;;;;;65.80;30.23;;;-0.10;99.90;;;;;;4998641;28;20525;-87
2023/01/29 07:20:41;;;;;;;58.88;26.30;;;0.00;99.90;;;;;;4991208;28;20706;-87
2023/01/29 07:23:11;;;;;;;58.67;29.27;;;0.10;23.60;;;;;;4993126;28;20302;-87
2023/01/29 07:25:37;;;;;;;61.65;28.35;;;0.20;1.00;;;;;;4980652;28;20191;-86
2023/01/29 07:28:03;;;;;;;62.20;30.10;;;0.30;1.00;;;;;;4982847;28;20234;-87
2023/01/29 07:30:29;;;;;;;53.63;25.77;;;0.30;99.90;;;;;;4986535;28;20175;-86
2023/01/29 07:32:54;;;;;;;61.97;28.63;;;0.40;99.90;;;;;;4983163;28;20796;-86
2023/01/29 07:35:23;;;;;;;58.03;28.10;;;0.40;1.00;;;;;;4979962;28;20234;-86
2023/01/29 07:37:49;;;;;;;60.00;28.75;;;0.50;1.00;;;;;;4988226;28;20312;-86
2023/01/29 07:40:15;;;;;;;59.75;29.73;;;0.50;1.00;;;;;;4984796;28;20561;-86
2023/01/29 07:42:43;;;;;;;57.70;27.33;;;0.60;99.90;;;;;;4979387;28;20232;-86
2023/01/29 07:45:10;;;;;;;53.50;26.38;;;0.60;99.90;;;;;;4991297;28;20594;-86
2023/01/29 07:47:36;;;;;;;54.33;27.42;;;0.60;99.90;;;;;;4975321;28;20187;-87
2023/01/29 07:50:02;;;;;;;50.73;26.67;;;0.70;95.20;;;;;;4992915;28;20279;-87
2023/01/29 07:52:32;;;;;;;62.35;28.92;;;0.70;1.00;;;;;;4982209;28;20210;-86
2023/01/29 07:54:58;;;;;;;61.63;29.10;;;0.70;1.00;;;;;;4981930;28;20180;-87
2023/01/29 07:57:24;;;;;;;51.53;26.57;;;0.80;1.00;;;;;;4990903;28;20540;-87
2023/01/29 07:59:50;;;;;;;60.03;27.90;;;0.80;1.00;;;;;;4991526;28;20183;-88
2023/01/29 08:02:16;;;;;;;54.40;25.00;;;0.90;1.00;;;;;;4992409;28;20274;-86
2023/01/29 08:04:41;;;;;;;51.40;25.90;;;1.00;1.00;;;;;;5002792;28;20989;-87
2023/01/29 08:07:08;;;;;;;57.03;26.77;;;1.00;99.90;;;;;;4981027;28;20187;-86
2023/01/29 08:09:34;;;;;;;58.92;27.58;;;1.00;99.90;;;;;;4967741;28;20725;-87
2023/01/29 08:12:00;;;;;;;58.90;27.02;;;1.10;99.90;;;;;;4973144;28;20324;-86
2023/01/29 08:14:25;;;;;;;53.73;26.00;;;1.20;99.90;;;;;;4988664;28;20234;-86
2023/01/29 08:16:51;;;;;;;57.50;26.83;;;1.20;99.90;;;;;;4984813;28;20186;-87
2023/01/29 08:19:16;;;;;;;55.60;28.13;;;1.30;99.90;;;;;;5002104;28;20191;-85
2023/01/29 08:21:42;;;;;;;55.27;27.07;;;1.40;78.20;;;;;;4977725;28;20215;-86
2023/01/29 08:24:08;;;;;;;57.73;28.07;;;1.40;16.30;;;;;;4996326;28;20207;-87
2023/01/29 08:26:34;;;;;;;57.87;27.00;;;1.40;18.10;;;;;;4995582;28;20477;-87
2023/01/29 08:28:59;;;;;;;59.10;27.30;;;1.50;1.00;;;;;;4973555;28;20191;-86
2023/01/29 08:31:25;;;;;;;58.37;29.23;;;1.50;1.00;;;;;;4991033;28;20217;-86
2023/01/29 08:33:53;;;;;;;51.03;24.47;;;1.60;1.00;;;;;;4989010;28;20216;-87
2023/01/29 08:36:19;;;;;;;52.85;24.95;;;1.70;1.00;;;;;;4976455;28;20192;-87
2023/01/29 08:38:44;;;;;;;54.70;27.60;;;1.80;1.00;;;;;;4981576;28;20186;-87
2023/01/29 08:41:10;;;;;;;52.63;25.93;;;1.90;1.00;;;;;;4980179;28;20218;-87
2023/01/29 08:43:39;;;;;;;52.10;25.60;;;2.00;1.00;;;;;;5003446;28;20203;-86
2023/01/29 08:46:08;;;;;;;61.00;26.60;;;2.10;99.90;;;;;;4971179;28;20192;-87
2023/01/29 08:48:35;;;;;;;51.85;26.13;;;2.20;99.90;;;;;;4978573;28;20250;-87
2023/01/29 08:51:01;;;;;;;49.60;25.38;;;2.40;99.90;;;;;;4982846;28;20214;-86
2023/01/29 08:53:27;;;;;;;52.15;24.95;;;2.50;99.90;;;;;;5004006;28;20264;-87
2023/01/29 08:55:52;;;;;;;57.37;27.37;;;2.50;1.00;;;;;;5003240;28;20183;-87
2023/01/29 08:58:18;;;;;;;54.83;26.17;;;2.60;1.00;;;;;;4970180;28;20183;-87
2023/01/29 09:00:44;;;;;;;57.10;29.02;;;2.60;1.00;;;;;;4977646;28;20187;-87
2023/01/29 09:03:10;;;;;;;56.97;25.03;;;2.70;1.00;;;;;;4975240;28;20203;-87
2023/01/29 09:05:37;;;;;;;52.85;27.33;;;2.70;1.00;;;;;;4980927;28;20191;-87
2023/01/29 09:08:04;;;;;;;51.75;26.80;;;2.70;1.00;;;;;;5002040;28;20191;-87
2023/01/29 09:10:30;;;;;;;44.38;25.73;;;2.60;1.00;;;;;;4976306;28;20191;-87
2023/01/29 09:12:55;;;;;;;49.65;27.33;;;2.60;1.00;;;;;;4984720;28;20317;-88
2023/01/29 09:15:37;;;;;;;43.07;24.23;;;2.60;1.00;;;;;;4987501;28;20677;-87
2023/01/29 09:18:37;;;;;;;52.60;27.13;;;2.70;1.00;;;;;;4971431;28;20203;-88
2023/01/29 09:21:15;;;;;;;48.33;25.23;;;2.70;1.00;;;;;;4972773;28;20187;-87
2023/01/29 09:27:13;;;;;;;54.95;26.48;;;2.90;99.90;;;;;;5011568;28;20190;-89
2023/01/29 09:29:30;;;;;;;55.92;24.02;;;3.00;99.90;;;;;;5000609;28;20196;-89
2023/01/29 09:32:01;;;;;;;52.90;26.87;;;3.20;99.90;;;;;;4995352;28;20225;-89
2023/01/29 09:34:29;;;;;;;53.55;27.08;;;3.40;99.90;;;;;;5000616;28;20202;-88
2023/01/29 09:36:55;;;;;;;53.08;25.40;;;3.60;99.90;;;;;;4977874;28;20203;-87
2023/01/29 09:39:21;;;;;;;47.50;24.47;;;3.90;99.90;;;;;;4982892;28;20204;-87
2023/01/29 09:42:13;;;;;;;56.03;28.03;;;4.20;99.90;;;;;;4981315;28;20183;-88
2023/01/29 09:45:13;;;;;;;48.95;25.67;;;4.50;38.30;;;;;;4987866;28;20591;-88
2023/01/29 09:47:41;;;;;;;50.13;26.48;;;4.60;1.00;;;;;;4993984;28;20242;-88
2023/01/29 09:50:22;;;;;;;55.25;26.10;;;4.60;1.00;;;;;;4976149;28;20183;-88
2023/01/29 09:53:03;;;;;;;47.15;24.73;;;4.60;1.00;;;;;;4994190;28;20226;-88
2023/01/29 09:55:45;;;;;;;50.30;26.90;;;4.50;1.00;;;;;;4982630;28;20191;-88
2023/01/29 09:58:35;;;;;;;54.42;25.30;;;4.40;1.00;;;;;;4993148;28;20184;-87
2023/01/29 10:01:15;;;;;;;50.88;26.40;;;4.30;1.00;;;;;;4995280;28;20613;-89
2023/01/29 10:03:48;;;;;;;50.33;28.08;;;4.20;1.00;;;;;;4976322;28;20709;-88
2023/01/29 10:06:51;;;;;;;49.85;26.90;;;4.10;1.00;;;;;;4999179;28;20195;-88
2023/01/29 10:09:53;;;;;;;50.58;24.05;;;4.10;1.00;;;;;;4988608;28;20187;-89
2023/01/29 10:12:42;;;;;;;52.13;26.50;;;4.10;1.00;;;;;;4991470;28;20237;-89
2023/01/29 10:15:39;;;;;;;52.50;24.65;;;4.10;1.00;;;;;;4986625;28;20190;-89
2023/01/29 10:18:42;;;;;;;44.85;23.42;;;4.10;1.00;;;;;;4974431;28;20211;-88
2023/01/29 10:21:26;;;;;;;47.15;24.63;;;4.10;1.00;;;;;;4985963;28;20184;-87
2023/01/29 10:23:56;;;;;;;47.63;22.55;;;4.10;1.00;;;;;;4978997;28;20237;-88
2023/01/29 10:26:25;;;;;;;49.88;25.40;;;4.20;1.00;;;;;;4997164;28;20265;-88
2023/01/29 10:28:53;;;;;;;47.85;24.63;;;4.20;1.00;;;;;;5000043;28;20187;-88
2023/01/29 10:31:30;;;;;;;47.60;24.63;;;4.20;1.00;;;;;;4976810;28;20214;-88
2023/01/29 10:34:06;;;;;;;42.60;22.85;;;4.30;1.00;;;;;;4965388;28;20302;-90
2023/01/29 10:36:41;;;;;;;51.13;24.67;;;4.30;1.00;;;;;;4989910;28;20178;-87
2023/01/29 10:39:21;;;;;;;47.47;24.15;;;4.20;1.00;;;;;;4982669;28;20729;-91
2023/01/29 10:42:27;;;;;;;44.17;24.00;;;4.30;1.00;;;;;;4970698;28;21386;-87
2023/01/29 10:45:07;;;;;;;43.40;22.90;;;4.30;1.00;;;;;;4967802;28;20273;-89
2023/01/29 10:47:41;;;;;;;45.95;24.88;;;4.30;1.00;;;;;;4973790;28;20619;-88
2023/01/29 10:50:28;;;;;;;44.50;22.77;;;4.30;1.00;;;;;;4982825;28;20186;-89
2023/01/29 10:53:13;;;;;;;44.45;22.50;;;4.40;1.00;;;;;;4972447;28;20215;-88
2023/01/29 10:56:22;;;;;;;52.88;25.25;;;4.40;1.00;;;;;;4996298;28;20191;-89
2023/01/29 10:58:56;;;;;;;44.53;24.50;;;4.50;1.00;;;;;;4986761;28;20202;-89
2023/01/29 11:01:28;;;;;;;47.60;26.35;;;4.50;1.00;;;;;;4968428;28;20532;-89
2023/01/29 11:04:00;;;;;;;49.75;26.30;;;4.60;1.00;;;;;;4984839;28;20206;-90
2023/01/29 11:06:51;;;;;;;50.92;26.70;;;4.60;1.00;;;;;;4994177;28;20183;-86
2023/01/29 11:09:42;;;;;;;39.88;24.95;;;4.70;1.00;;;;;;4970718;28;20271;-87
2023/01/29 11:12:17;;;;;;;40.40;22.55;;;4.80;1.00;;;;;;4976581;28;20224;-88
2023/01/29 11:14:51;;;;;;;46.00;25.50;;;4.80;1.00;;;;;;4980447;28;20199;-87
2023/01/29 11:17:29;;;;;;;44.28;24.05;;;4.80;1.00;;;;;;4997315;28;20191;-88
2023/01/29 11:20:05;;;;;;;56.22;32.33;;;4.80;1.00;;;;;;4992157;28;20187;-89
2023/01/29 11:22:55;;;;;;;51.35;30.38;;;4.90;1.00;;;;;;4978186;28;20195;-87
2023/01/29 11:25:28;;;;;;;44.08;24.80;;;4.90;1.00;;;;;;5003917;28;20187;-88
2023/01/29 11:27:59;;;;;;;40.40;22.33;;;5.00;1.00;;;;;;4982964;28;20679;-88
2023/01/29 11:30:30;;;;;;;53.50;30.25;;;5.00;1.00;;;;;;4994983;28;20192;-88
2023/01/29 11:33:24;;;;;;;53.58;28.83;;;4.90;1.00;;;;;;4980560;28;20219;-89
2023/01/29 11:35:54;;;;;;;59.28;30.92;;;4.90;1.00;;;;;;4981881;28;20286;-88
2023/01/29 11:38:28;;;;;;;50.63;26.80;;;4.90;1.00;;;;;;4997621;28;20186;-89
2023/01/29 11:41:06;;;;;;;56.08;32.13;;;4.90;1.00;;;;;;4991149;28;20183;-87
2023/01/29 11:43:32;;;;;;;63.80;32.75;;;5.00;1.00;;;;;;4994311;28;20338;-89
2023/01/29 11:46:27;;;;;;;45.88;24.13;;;5.00;1.00;;;;;;4984179;28;20202;-88
2023/01/29 11:49:01;;;;;;;40.15;20.67;;;5.10;1.00;;;;;;4976522;28;20657;-88
2023/01/29 11:51:28;;;;;;;59.25;33.60;;;5.20;1.00;;;;;;4991687;28;20210;-89
2023/01/29 11:54:15;;;;;;;48.83;25.15;;;5.20;1.00;;;;;;4976715;28;20517;-88
2023/01/29 11:56:46;;;;;;;41.38;23.08;;;5.20;1.00;;;;;;4995965;28;20561;-89
2023/01/29 11:59:56;;;;;;;41.17;21.98;;;5.20;1.00;;;;;;4976661;28;20188;-89
2023/01/29 12:02:42;;;;;;;38.80;21.45;;;5.20;1.00;;;;;;4976480;28;20195;-88
2023/01/29 12:05:25;;;;;;;40.45;22.40;;;5.20;1.00;;;;;;4975929;28;20210;-89
2023/01/29 12:07:54;;;;;;;40.42;22.70;;;5.20;1.00;;;;;;4987478;28;20183;-87
2023/01/29 12:10:41;;;;;;;41.85;23.00;;;5.20;1.00;;;;;;4980470;28;20195;-87
2023/01/29 12:13:14;;;;;;;41.65;22.45;;;5.20;1.00;;;;;;4970227;28;20587;-86
2023/01/29 12:15:41;;;;;;;39.20;21.85;;;5.30;1.00;;;;;;4975739;28;20226;-88
2023/01/29 12:18:33;;;;;;;45.33;24.65;;;5.30;1.00;;;;;;4995743;28;20175;-89
2023/01/29 12:21:13;;;;;;;39.60;21.02;;;5.30;1.00;;;;;;4971297;28;20583;-88
2023/01/29 12:23:54;;;;;;;61.15;33.75;;;5.30;1.00;;;;;;4982090;28;20786;-88
2023/01/29 12:26:41;;;;;;;37.47;21.17;;;5.30;1.00;;;;;;4975864;28;20988;-89
2023/01/29 12:29:24;;;;;;;39.42;20.05;;;5.40;1.00;;;;;;4966463;28;20195;-89
2023/01/29 12:32:35;;;;;;;35.65;19.05;;;5.30;1.00;;;;;;4992957;28;20210;-87
2023/01/29 12:35:19;;;;;;;66.78;35.08;;;5.40;1.00;;;;;;4992636;28;20176;-88
2023/01/29 12:38:10;;;;;;;41.47;24.42;;;5.40;1.00;;;;;;4973690;28;20188;-87
2023/01/29 12:40:46;;;;;;;42.17;23.85;;;5.40;1.00;;;;;;4987011;28;20190;-89
2023/01/29 12:43:40;;;;;;;46.35;25.92;;;5.40;1.00;;;;;;4990335;28;20264;-86
2023/01/29 12:46:13;;;;;;;40.83;21.88;;;5.30;1.00;;;;;;4987634;28;20196;-88
2023/01/29 12:48:41;;;;;;;50.88;25.63;;;5.30;1.00;;;;;;4973675;28;20187;-88
2023/01/29 12:51:12;;;;;;;44.50;23.98;;;5.20;1.00;;;;;;4974331;28;20681;-88
2023/01/29 12:53:56;;;;;;;48.65;27.00;;;5.20;1.00;;;;;;4980684;28;20204;-87
2023/01/29 12:56:46;;;;;;;64.20;32.95;;;5.20;1.00;;;;;;4990390;28;20211;-87
2023/01/29 12:59:25;;;;;;;46.97;24.83;;;5.20;1.00;;;;;;4994692;28;20293;-87
2023/01/29 13:01:55;;;;;;;50.00;27.13;;;5.30;1.00;;;;;;4979374;28;20273;-88
2023/01/29 13:04:37;;;;;;;47.17;24.40;;;5.30;1.00;;;;;;4994152;28;20297;-86
2023/01/29 13:07:27;;;;;;;54.97;29.10;;;5.30;1.00;;;;;;4980413;28;20196;-88
2023/01/29 13:09:58;;;;;;;43.25;21.98;;;5.40;1.00;;;;;;4990440;28;20179;-87
2023/01/29 13:12:24;;;;;;;42.60;22.98;;;5.50;1.00;;;;;;4992467;28;20207;-87
2023/01/29 13:15:04;;;;;;;48.22;24.70;;;5.50;1.00;;;;;;4983228;28;20203;-88
2023/01/29 13:17:41;;;;;;;78.82;36.15;;;5.50;1.00;;;;;;4987856;28;20195;-87
2023/01/29 13:20:27;;;;;;;41.22;21.92;;;5.50;1.00;;;;;;4982869;28;20182;-90
2023/01/29 13:22:57;;;;;;;44.80;24.65;;;5.60;1.00;;;;;;4986489;28;20234;-88
2023/01/29 13:25:25;;;;;;;41.58;20.52;;;5.60;1.00;;;;;;4986215;28;20196;-87
2023/01/29 13:27:54;;;;;;;48.13;24.92;;;5.70;1.00;;;;;;4971129;28;20186;-87
2023/01/29 13:30:37;;;;;;;53.00;25.27;;;5.70;1.00;;;;;;4993124;28;20575;-87
2023/01/29 13:33:09;;;;;;;41.03;20.92;;;5.80;1.00;;;;;;4968623;28;20626;-88
2023/01/29 13:35:39;;;;;;;42.03;20.92;;;5.90;1.00;;;;;;4996283;28;20187;-88
2023/01/29 13:38:23;;;;;;;32.60;18.75;;;5.90;1.00;;;;;;4976157;28;20560;-89
2023/01/29 13:40:50;;;;;;;36.85;18.50;;;5.80;1.00;;;;;;4992715;28;20191;-90
2023/01/29 13:43:22;;;;;;;31.10;17.55;;;5.80;1.00;;;;;;4990678;28;20337;-89
2023/01/29 13:45:50;;;;;;;37.00;19.65;;;5.70;1.00;;;;;;4987365;28;20264;-87
2023/01/29 13:48:31;;;;;;;36.42;19.50;;;5.70;1.00;;;;;;4971654;28;20569;-88
2023/01/29 13:51:01;;;;;;;32.67;17.95;;;5.60;1.00;;;;;;4987170;28;20302;-89
2023/01/29 13:53:35;;;;;;;31.88;17.95;;;5.60;1.00;;;;;;4988080;28;20293;-88
2023/01/29 13:56:32;;;;;;;32.50;18.77;;;5.50;1.00;;;;;;4977395;28;20270;-87
2023/01/29 13:58:59;;;;;;;32.55;17.55;;;5.50;1.00;;;;;;4966472;28;20241;-88
2023/01/29 14:01:46;;;;;;;30.30;16.67;;;5.40;1.00;;;;;;4992945;28;20192;-88
2023/01/29 14:04:18;;;;;;;33.58;18.38;;;5.30;1.00;;;;;;4987934;28;20222;-88
2023/01/29 14:07:06;;;;;;;32.38;17.50;;;5.30;1.00;;;;;;4971664;28;20184;-88
2023/01/29 14:09:37;;;;;;;30.63;16.55;;;5.30;1.00;;;;;;4972866;28;20307;-86
2023/01/29 14:12:24;;;;;;;32.08;17.20;;;5.30;1.00;;;;;;4973608;28;20316;-86
2023/01/29 14:15:15;;;;;;;30.10;16.85;;;5.30;1.00;;;;;;4992243;28;20207;-86
2023/01/29 14:18:01;;;;;;;32.97;17.05;;;5.20;1.00;;;;;;4994709;28;20300;-87
2023/01/29 14:20:38;;;;;;;27.40;16.33;;;5.20;1.00;;;;;;4994752;28;20179;-87
2023/01/29 14:23:05;;;;;;;27.27;15.90;;;5.10;1.00;;;;;;4987556;28;20692;-87
2023/01/29 14:25:33;;;;;;;30.30;17.20;;;5.10;1.00;;;;;;4977916;28;20968;-88
2023/01/29 14:28:01;;;;;;;33.03;16.60;;;5.00;1.00;;;;;;4964925;28;20201;-88
2023/01/29 14:30:31;;;;;;;30.55;15.80;;;5.00;1.00;;;;;;4981770;28;20184;-89
2023/01/29 14:32:57;;;;;;;29.65;15.77;;;5.00;1.00;;;;;;4986303;28;20210;-87
2023/01/29 14:35:25;;;;;;;29.45;15.23;;;4.90;1.00;;;;;;5006386;28;20382;-86
2023/01/29 14:37:58;;;;;;;26.55;14.25;;;4.90;1.00;;;;;;4992376;28;20195;-87
2023/01/29 14:40:26;;;;;;;22.92;13.25;;;4.90;1.00;;;;;;4989277;28;20180;-88
2023/01/29 14:43:04;;;;;;;23.55;14.95;;;4.90;1.00;;;;;;4977417;28;20296;-87